Time;durP1;ratioP1;P1;durP2;ratioP2;P2;SDS_P1;SDS_P2;PMS_P1;PMS_P2;Temp;Humidity;BMP_temperature;BMP_pressure;BME280_temperature;BME280_humidity;BME280_pressure;Samples;Min_cycle;Max_cycle;Signal;HPM_P1;HPM_P2
2023/12/08 00:01:57;;;;;;;24.03;19.23;;;2.00;99.90;;;;;;4980087;28;20137;-72
2023/12/08 00:04:23;;;;;;;22.60;20.17;;;1.90;99.90;;;;;;5017156;28;20028;-72
2023/12/08 00:06:49;;;;;;;21.77;19.40;;;1.90;99.90;;;;;;5018501;28;20935;-72
2023/12/08 00:09:14;;;;;;;23.27;19.97;;;2.00;99.90;;;;;;4983277;28;20088;-72
2023/12/08 00:11:40;;;;;;;24.07;20.67;;;1.90;99.90;;;;;;4984893;28;20049;-73
2023/12/08 00:14:06;;;;;;;22.43;19.73;;;1.90;99.90;;;;;;4997622;28;20081;-72
2023/12/08 00:16:31;;;;;;;22.13;19.87;;;1.90;99.90;;;;;;5026753;28;20066;-72
2023/12/08 00:18:57;;;;;;;22.03;19.57;;;1.90;99.90;;;;;;5009285;28;20042;-72
2023/12/08 00:21:25;;;;;;;22.90;20.20;;;1.90;99.90;;;;;;5015045;28;20831;-72
2023/12/08 00:23:51;;;;;;;25.10;20.10;;;1.90;99.90;;;;;;4970184;28;20544;-72
2023/12/08 00:26:17;;;;;;;24.55;21.02;;;1.90;99.90;;;;;;4979676;28;20371;-72
2023/12/08 00:28:44;;;;;;;21.73;19.43;;;1.90;99.90;;;;;;5007706;28;20823;-72
2023/12/08 00:31:10;;;;;;;22.13;19.73;;;1.90;99.90;;;;;;5042129;28;20046;-72
2023/12/08 00:33:36;;;;;;;22.25;19.88;;;1.90;99.90;;;;;;4974489;28;20031;-72
2023/12/08 00:36:11;;;;;;;24.70;20.27;;;1.90;99.90;;;;;;5021027;28;20077;-72
2023/12/08 00:38:36;;;;;;;22.98;20.58;;;2.00;99.90;;;;;;4972400;28;20058;-72
2023/12/08 00:41:02;;;;;;;23.77;21.33;;;1.90;99.90;;;;;;5009537;28;20119;-72
2023/12/08 00:43:28;;;;;;;23.10;19.95;;;1.90;99.90;;;;;;5003227;28;20082;-72
2023/12/08 00:45:54;;;;;;;25.58;21.52;;;2.00;99.90;;;;;;5014060;28;20498;-72
2023/12/08 00:48:19;;;;;;;24.00;21.50;;;2.00;99.90;;;;;;4973271;28;20111;-72
2023/12/08 00:50:45;;;;;;;23.50;20.98;;;2.00;99.90;;;;;;4987197;28;20476;-72
2023/12/08 00:53:11;;;;;;;23.33;20.95;;;2.00;99.90;;;;;;4983834;28;20045;-72
2023/12/08 00:55:37;;;;;;;24.63;22.02;;;1.90;99.90;;;;;;4980906;28;20099;-72
2023/12/08 00:58:03;;;;;;;24.83;21.38;;;1.90;99.90;;;;;;5001732;28;20096;-72
2023/12/08 01:00:29;;;;;;;25.73;22.77;;;1.90;99.90;;;;;;5005484;28;20087;-73
2023/12/08 01:02:55;;;;;;;25.60;22.92;;;1.90;99.90;;;;;;4965450;28;20046;-72
2023/12/08 01:05:20;;;;;;;26.20;22.63;;;2.00;99.90;;;;;;5033213;27;20039;-72
2023/12/08 01:07:46;;;;;;;26.08;23.30;;;2.00;99.90;;;;;;5006246;28;20091;-72
2023/12/08 01:10:12;;;;;;;25.52;22.85;;;2.00;99.90;;;;;;5011226;28;20515;-73
2023/12/08 01:12:38;;;;;;;26.25;23.42;;;1.90;99.90;;;;;;5001217;28;20068;-72
2023/12/08 01:15:05;;;;;;;24.90;22.20;;;1.90;99.90;;;;;;4991838;28;20055;-72
2023/12/08 01:17:34;;;;;;;27.47;24.60;;;2.00;99.90;;;;;;4991225;28;20122;-69
2023/12/08 01:19:59;;;;;;;27.00;22.95;;;1.90;99.90;;;;;;4982594;28;20498;-72
2023/12/08 01:22:27;;;;;;;26.30;23.35;;;1.90;99.90;;;;;;4979589;28;20057;-73
2023/12/08 01:24:54;;;;;;;26.25;23.45;;;1.90;99.90;;;;;;4964092;28;20438;-73
2023/12/08 01:27:20;;;;;;;25.80;22.98;;;1.90;99.90;;;;;;4978817;28;20042;-73
2023/12/08 01:29:45;;;;;;;26.70;23.02;;;1.90;99.90;;;;;;5027730;27;20093;-74
2023/12/08 01:32:11;;;;;;;27.73;24.73;;;1.90;99.90;;;;;;4992517;28;20070;-72
2023/12/08 01:34:37;;;;;;;27.87;23.73;;;1.80;99.90;;;;;;4996652;28;20512;-73
2023/12/08 01:37:06;;;;;;;26.40;23.60;;;1.90;99.90;;;;;;4980337;28;20100;-72
2023/12/08 01:39:32;;;;;;;26.15;23.45;;;1.90;99.90;;;;;;5007008;28;20172;-72
2023/12/08 01:41:57;;;;;;;27.25;24.30;;;1.90;99.90;;;;;;4979828;28;20176;-72
2023/12/08 01:44:23;;;;;;;26.20;23.43;;;1.80;99.90;;;;;;4964368;28;20035;-72
2023/12/08 01:46:50;;;;;;;29.42;25.05;;;1.80;99.90;;;;;;5015243;28;20049;-72
2023/12/08 01:49:17;;;;;;;27.50;24.63;;;1.90;99.90;;;;;;4976883;28;20053;-72
2023/12/08 01:51:44;;;;;;;27.23;24.48;;;1.80;99.90;;;;;;4971839;28;20057;-72
2023/12/08 01:54:11;;;;;;;26.80;23.97;;;1.80;99.90;;;;;;4992859;28;20100;-73
2023/12/08 01:56:37;;;;;;;28.42;24.95;;;1.80;99.90;;;;;;4978500;28;20050;-71
2023/12/08 01:59:04;;;;;;;29.47;26.03;;;1.80;99.90;;;;;;5007381;28;20047;-71
2023/12/08 02:01:30;;;;;;;26.55;23.75;;;1.80;99.90;;;;;;5010459;28;20107;-72
2023/12/08 02:03:56;;;;;;;29.03;25.83;;;1.80;99.90;;;;;;5027874;28;20084;-72
2023/12/08 02:06:22;;;;;;;30.05;26.85;;;1.90;99.90;;;;;;4982147;28;20088;-72
2023/12/08 02:08:48;;;;;;;28.13;25.13;;;1.80;99.90;;;;;;4979068;28;20047;-72
2023/12/08 02:11:14;;;;;;;29.25;26.15;;;1.80;99.90;;;;;;4966895;28;20034;-73
2023/12/08 02:13:41;;;;;;;29.70;26.58;;;1.80;99.90;;;;;;4984921;28;20106;-71
2023/12/08 02:16:13;;;;;;;30.13;26.85;;;1.80;99.90;;;;;;4999946;28;20399;-73
2023/12/08 02:18:40;;;;;;;28.03;25.00;;;1.80;99.90;;;;;;5025339;27;20050;-73
2023/12/08 02:21:08;;;;;;;29.13;26.03;;;1.80;99.90;;;;;;4983879;28;20166;-74
2023/12/08 02:23:35;;;;;;;31.03;26.03;;;1.70;99.90;;;;;;4954423;28;20418;-74
2023/12/08 02:26:08;;;;;;;29.08;25.88;;;1.70;99.90;;;;;;4963499;28;20058;-72
2023/12/08 02:28:43;;;;;;;28.23;25.23;;;1.70;99.90;;;;;;5014750;28;20041;-73
2023/12/08 02:31:16;;;;;;;29.33;26.23;;;1.70;99.90;;;;;;4979915;28;20050;-73
2023/12/08 02:33:45;;;;;;;27.92;24.85;;;1.70;99.90;;;;;;4976284;28;20329;-73
2023/12/08 02:36:17;;;;;;;28.13;25.00;;;1.70;99.90;;;;;;5009881;28;20134;-73
2023/12/08 02:38:44;;;;;;;29.23;25.67;;;1.70;99.90;;;;;;4991401;28;20133;-73
2023/12/08 02:41:09;;;;;;;29.73;26.53;;;1.70;99.90;;;;;;4988564;28;20403;-73
2023/12/08 02:43:35;;;;;;;29.42;26.23;;;1.70;99.90;;;;;;4982464;28;20032;-73
2023/12/08 02:46:01;;;;;;;29.65;26.45;;;1.60;99.90;;;;;;4989963;28;20052;-73
2023/12/08 02:48:26;;;;;;;30.33;27.02;;;1.60;99.90;;;;;;4980461;28;20041;-73
2023/12/08 02:50:52;;;;;;;29.77;26.42;;;1.60;99.90;;;;;;4979956;28;20082;-72
2023/12/08 02:53:18;;;;;;;28.85;25.77;;;1.60;99.90;;;;;;4989962;28;20525;-73
2023/12/08 02:55:44;;;;;;;28.35;25.10;;;1.60;99.90;;;;;;4976813;28;20042;-73
2023/12/08 02:58:10;;;;;;;32.40;27.88;;;1.60;99.90;;;;;;5005447;28;20484;-72
2023/12/08 03:00:35;;;;;;;29.65;26.42;;;1.60;99.90;;;;;;4991899;28;20570;-73
2023/12/08 03:03:01;;;;;;;31.27;26.88;;;1.60;99.90;;;;;;4974224;28;20056;-73
2023/12/08 03:05:27;;;;;;;29.25;26.05;;;1.60;99.90;;;;;;4967586;28;20107;-73
2023/12/08 03:07:53;;;;;;;29.87;25.83;;;1.60;99.90;;;;;;4980524;28;20133;-71
2023/12/08 03:10:19;;;;;;;33.67;28.00;;;1.60;99.90;;;;;;4974754;28;20073;-71
2023/12/08 03:12:45;;;;;;;31.13;26.33;;;1.60;99.90;;;;;;4982290;28;20046;-71
2023/12/08 03:15:10;;;;;;;31.13;27.65;;;1.60;99.90;;;;;;4980719;28;20046;-71
2023/12/08 03:17:36;;;;;;;29.88;26.67;;;1.60;99.90;;;;;;4982007;28;20081;-72
2023/12/08 03:20:03;;;;;;;31.90;27.48;;;1.60;99.90;;;;;;4981623;28;20054;-72
2023/12/08 03:22:29;;;;;;;29.70;26.55;;;1.60;99.90;;;;;;4960012;28;20045;-72
2023/12/08 03:24:55;;;;;;;29.45;26.33;;;1.60;99.90;;;;;;4974765;28;20050;-72
2023/12/08 03:27:21;;;;;;;30.23;26.63;;;1.60;99.90;;;;;;4976301;28;20277;-73
2023/12/08 03:29:46;;;;;;;32.97;27.67;;;1.60;99.90;;;;;;4980591;28;20042;-72
2023/12/08 03:32:12;;;;;;;32.47;27.52;;;1.60;99.90;;;;;;4963873;28;20042;-71
2023/12/08 03:34:38;;;;;;;33.17;27.50;;;1.60;99.90;;;;;;4981320;28;20401;-72
2023/12/08 03:37:04;;;;;;;33.63;28.33;;;1.50;99.90;;;;;;4979803;28;20050;-72
2023/12/08 03:39:30;;;;;;;32.25;27.35;;;1.50;99.90;;;;;;4990886;28;20411;-73
2023/12/08 03:41:56;;;;;;;32.90;28.58;;;1.50;99.90;;;;;;4966388;28;20486;-72
2023/12/08 03:44:22;;;;;;;35.45;30.40;;;1.40;99.90;;;;;;4962181;28;20099;-72
2023/12/08 03:46:48;;;;;;;35.23;30.63;;;1.40;99.90;;;;;;4974871;28;20054;-72
2023/12/08 03:49:17;;;;;;;35.83;30.25;;;1.30;99.90;;;;;;5004830;28;20035;-73
2023/12/08 03:51:43;;;;;;;36.03;31.03;;;1.40;99.90;;;;;;4976639;28;20038;-72
2023/12/08 03:54:09;;;;;;;35.92;29.98;;;1.40;99.90;;;;;;4984955;28;20038;-73
2023/12/08 03:56:34;;;;;;;36.90;30.88;;;1.30;99.90;;;;;;5013941;28;20038;-72
2023/12/08 03:59:00;;;;;;;36.97;31.90;;;1.30;99.90;;;;;;5007982;28;20560;-73
2023/12/08 04:01:26;;;;;;;39.00;31.53;;;1.30;99.90;;;;;;5040259;28;20060;-73
2023/12/08 04:03:52;;;;;;;40.03;31.10;;;1.20;99.90;;;;;;4976539;28;20103;-73
2023/12/08 04:06:18;;;;;;;41.63;32.55;;;1.20;99.90;;;;;;4984996;28;20508;-72
2023/12/08 04:08:44;;;;;;;41.78;32.85;;;1.20;99.90;;;;;;4980626;28;20050;-72
2023/12/08 04:11:10;;;;;;;44.67;34.77;;;1.10;99.90;;;;;;4995182;28;20063;-72
2023/12/08 04:13:38;;;;;;;46.57;34.07;;;1.00;99.90;;;;;;5005134;28;20093;-73
2023/12/08 04:16:08;;;;;;;43.50;33.13;;;1.10;99.90;;;;;;4985195;28;20151;-73
2023/12/08 04:18:35;;;;;;;46.15;34.50;;;1.10;99.90;;;;;;4986482;28;20538;-73
2023/12/08 04:21:01;;;;;;;47.07;34.67;;;1.10;99.90;;;;;;4975672;28;20050;-73
2023/12/08 04:23:27;;;;;;;47.67;34.63;;;1.10;99.90;;;;;;4971023;28;20042;-73
2023/12/08 04:25:52;;;;;;;48.33;34.87;;;1.10;99.90;;;;;;4979973;28;20096;-73
2023/12/08 04:28:18;;;;;;;51.22;35.75;;;1.10;99.90;;;;;;4999266;28;20090;-73
2023/12/08 04:30:44;;;;;;;52.33;35.42;;;1.00;99.90;;;;;;4985073;28;20070;-73
2023/12/08 04:33:10;;;;;;;50.80;36.23;;;1.00;99.90;;;;;;4998728;28;20036;-73
2023/12/08 04:35:35;;;;;;;54.80;37.33;;;1.00;99.90;;;;;;5029391;28;20106;-73
2023/12/08 04:38:01;;;;;;;53.83;38.22;;;1.00;99.90;;;;;;4992556;28;20116;-73
2023/12/08 04:40:27;;;;;;;54.57;37.33;;;1.00;99.90;;;;;;4974236;28;20039;-73
2023/12/08 04:42:53;;;;;;;51.40;36.10;;;1.00;99.90;;;;;;4984811;28;20038;-73
2023/12/08 04:45:18;;;;;;;57.87;39.17;;;1.00;99.90;;;;;;4978576;28;20042;-73
2023/12/08 04:47:44;;;;;;;55.67;38.67;;;1.00;99.90;;;;;;4994813;28;20042;-74
2023/12/08 04:50:10;;;;;;;58.10;38.07;;;1.00;99.90;;;;;;4964047;28;20232;-74
2023/12/08 04:52:35;;;;;;;59.10;39.47;;;1.00;99.90;;;;;;4979474;28;20081;-73
2023/12/08 04:55:04;;;;;;;58.87;39.70;;;1.00;99.90;;;;;;4992610;28;20070;-74
2023/12/08 04:57:30;;;;;;;56.93;39.57;;;1.00;99.90;;;;;;4992334;28;20046;-74
2023/12/08 04:59:56;;;;;;;59.73;40.00;;;1.00;99.90;;;;;;4977097;28;20053;-74
2023/12/08 05:02:22;;;;;;;54.30;38.87;;;0.90;99.90;;;;;;4955251;28;20054;-74
2023/12/08 05:04:48;;;;;;;58.80;39.70;;;1.00;99.90;;;;;;4963391;28;20062;-74
2023/12/08 05:07:13;;;;;;;55.50;38.70;;;1.00;99.90;;;;;;4966699;28;20066;-74
2023/12/08 05:09:39;;;;;;;49.67;36.42;;;1.00;99.90;;;;;;4962109;28;20100;-74
2023/12/08 05:12:05;;;;;;;52.60;38.55;;;1.00;99.90;;;;;;4981649;28;20042;-74
2023/12/08 05:14:31;;;;;;;54.10;37.63;;;1.00;99.90;;;;;;4977222;28;20140;-73
2023/12/08 05:16:57;;;;;;;50.13;37.33;;;1.10;99.90;;;;;;4966018;28;20507;-73
2023/12/08 05:19:23;;;;;;;52.87;38.83;;;1.10;99.90;;;;;;4978586;28;20051;-73
2023/12/08 05:21:49;;;;;;;44.73;35.17;;;1.20;99.90;;;;;;4968556;28;20081;-73
2023/12/08 05:24:14;;;;;;;48.23;36.57;;;1.10;99.90;;;;;;4981007;28;20058;-73
2023/12/08 05:26:40;;;;;;;46.87;36.30;;;1.10;99.90;;;;;;4967478;28;20520;-74
2023/12/08 05:29:06;;;;;;;46.90;36.25;;;1.10;99.90;;;;;;4983452;28;20058;-74
2023/12/08 05:31:32;;;;;;;52.27;37.70;;;1.00;99.90;;;;;;4968087;28;20068;-74
2023/12/08 05:33:58;;;;;;;48.30;36.93;;;1.10;99.90;;;;;;4984721;28;20061;-72
2023/12/08 05:36:24;;;;;;;48.00;37.53;;;1.00;99.90;;;;;;4985387;28;20046;-74
2023/12/08 05:38:49;;;;;;;49.40;37.27;;;1.00;99.90;;;;;;4966290;28;20046;-72
2023/12/08 05:41:15;;;;;;;49.93;36.63;;;1.10;99.90;;;;;;4985191;28;20050;-72
2023/12/08 05:43:41;;;;;;;53.93;38.53;;;1.10;99.90;;;;;;4954343;28;20069;-72
2023/12/08 05:46:06;;;;;;;49.03;36.90;;;1.10;99.90;;;;;;4986004;28;20156;-73
2023/12/08 05:48:32;;;;;;;51.33;37.60;;;1.00;99.90;;;;;;4969895;28;20802;-72
2023/12/08 05:50:58;;;;;;;56.23;38.67;;;1.10;99.90;;;;;;4969114;28;20054;-72
2023/12/08 05:53:24;;;;;;;53.90;39.10;;;1.00;99.90;;;;;;4985031;28;20199;-72
2023/12/08 05:55:49;;;;;;;52.53;38.30;;;1.00;99.90;;;;;;4969664;28;20038;-72
2023/12/08 05:58:16;;;;;;;59.40;40.37;;;1.00;99.90;;;;;;5007552;28;20398;-72
2023/12/08 06:00:42;;;;;;;57.87;39.83;;;1.00;99.90;;;;;;4967277;28;20143;-72
2023/12/08 06:03:08;;;;;;;55.58;38.58;;;1.00;99.90;;;;;;4983350;28;20092;-72
2023/12/08 06:05:36;;;;;;;53.70;39.17;;;1.10;99.90;;;;;;4981177;28;20126;-72
2023/12/08 06:08:02;;;;;;;54.97;38.70;;;1.00;99.90;;;;;;4972908;28;20495;-72
2023/12/08 06:10:28;;;;;;;56.87;39.43;;;1.00;99.90;;;;;;4984535;28;20231;-72
2023/12/08 06:12:54;;;;;;;58.37;41.63;;;1.00;99.90;;;;;;5018315;28;20566;-72
2023/12/08 06:15:20;;;;;;;53.53;38.57;;;1.00;99.90;;;;;;4982460;28;20046;-72
2023/12/08 06:17:46;;;;;;;60.83;40.13;;;1.00;99.90;;;;;;5019308;28;20039;-72
2023/12/08 06:20:12;;;;;;;57.33;40.07;;;1.00;99.90;;;;;;4985653;28;20050;-74
2023/12/08 06:22:38;;;;;;;59.40;40.37;;;1.00;99.90;;;;;;5013867;28;20043;-72
2023/12/08 06:25:08;;;;;;;60.47;40.92;;;1.00;99.90;;;;;;4984553;28;20069;-73
2023/12/08 06:27:37;;;;;;;56.03;38.22;;;1.00;99.90;;;;;;4982626;28;20046;-73
2023/12/08 06:30:07;;;;;;;59.77;40.07;;;0.90;99.90;;;;;;4984764;28;20607;-72
2023/12/08 06:32:36;;;;;;;;;;;0.90;99.90;;;;;;4981793;28;20125;-74
2023/12/08 06:35:10;;;;;;;67.80;42.17;;;1.00;99.90;;;;;;4983545;28;19975;-71
2023/12/08 06:37:35;;;;;;;66.23;42.90;;;0.90;99.90;;;;;;4967884;28;20046;-72
2023/12/08 06:40:01;;;;;;;58.43;40.00;;;0.90;99.90;;;;;;4965918;28;20061;-73
2023/12/08 06:42:27;;;;;;;61.67;40.37;;;1.00;99.90;;;;;;4969278;28;20049;-74
2023/12/08 06:44:55;;;;;;;66.33;42.67;;;0.90;99.90;;;;;;4981817;28;20046;-73
2023/12/08 06:47:21;;;;;;;62.63;41.27;;;0.90;99.90;;;;;;5015279;28;20065;-73
2023/12/08 06:49:47;;;;;;;62.80;42.27;;;0.90;99.90;;;;;;4967032;28;20046;-71
2023/12/08 06:52:13;;;;;;;64.73;42.83;;;1.00;99.90;;;;;;4967555;28;20534;-73
2023/12/08 06:54:39;;;;;;;65.37;42.77;;;1.00;99.90;;;;;;4983672;28;20091;-73
2023/12/08 06:57:04;;;;;;;68.20;44.10;;;1.00;99.90;;;;;;4982794;28;20290;-73
2023/12/08 06:59:30;;;;;;;64.70;41.73;;;1.00;99.90;;;;;;4987095;28;20080;-73
2023/12/08 07:01:56;;;;;;;63.53;41.67;;;1.00;99.90;;;;;;4977478;28;20045;-74
2023/12/08 07:04:22;;;;;;;59.60;41.65;;;1.00;99.90;;;;;;4984418;28;20417;-73
2023/12/08 07:06:48;;;;;;;65.77;42.70;;;1.00;99.90;;;;;;4983518;28;20180;-73
2023/12/08 07:09:13;;;;;;;63.10;41.67;;;1.00;99.90;;;;;;4985536;28;20051;-73
2023/12/08 07:11:39;;;;;;;63.97;42.83;;;1.00;99.90;;;;;;4981756;28;20046;-73
2023/12/08 07:14:05;;;;;;;61.53;41.27;;;1.00;99.90;;;;;;4984970;28;20048;-73
2023/12/08 07:16:31;;;;;;;60.30;41.07;;;0.90;99.90;;;;;;4967700;28;20399;-73
2023/12/08 07:18:57;;;;;;;57.63;41.23;;;1.00;99.90;;;;;;4988322;28;20084;-73
2023/12/08 07:21:23;;;;;;;64.93;41.00;;;1.00;99.90;;;;;;4965297;28;20046;-73
2023/12/08 07:23:49;;;;;;;57.83;40.00;;;1.00;99.90;;;;;;5001753;28;20165;-73
2023/12/08 07:26:15;;;;;;;59.17;40.50;;;1.00;99.90;;;;;;4958382;28;20434;-73
2023/12/08 07:28:42;;;;;;;57.00;40.53;;;1.00;99.90;;;;;;4979377;28;20050;-72
2023/12/08 07:31:08;;;;;;;61.23;40.47;;;1.00;99.90;;;;;;4997788;28;20528;-71
2023/12/08 07:33:34;;;;;;;58.63;39.93;;;1.00;99.90;;;;;;4981823;28;20076;-71
2023/12/08 07:36:00;;;;;;;62.47;41.80;;;1.20;99.90;;;;;;4980285;28;20528;-71
2023/12/08 07:38:26;;;;;;;54.53;39.47;;;1.00;99.90;;;;;;4986872;28;20050;-71
2023/12/08 07:40:53;;;;;;;58.40;40.23;;;1.00;99.90;;;;;;5013470;28;20046;-71
2023/12/08 07:43:18;;;;;;;59.03;39.20;;;1.10;99.90;;;;;;4981220;28;20061;-71
2023/12/08 07:45:45;;;;;;;58.30;39.13;;;1.10;99.90;;;;;;4991635;28;20051;-71
2023/12/08 07:48:13;;;;;;;56.77;39.27;;;1.10;99.90;;;;;;4981841;28;20053;-72
2023/12/08 07:50:39;;;;;;;58.67;40.80;;;1.10;99.90;;;;;;5004428;28;20038;-71
2023/12/08 07:53:05;;;;;;;60.58;41.17;;;1.10;99.90;;;;;;4981443;28;20099;-71
2023/12/08 07:55:31;;;;;;;59.92;40.72;;;1.10;99.90;;;;;;5031897;28;20049;-72
2023/12/08 07:57:56;;;;;;;57.42;38.78;;;1.10;99.90;;;;;;4965738;28;20046;-73
2023/12/08 08:00:23;;;;;;;58.47;40.20;;;1.10;99.90;;;;;;4973202;28;20053;-73
2023/12/08 08:02:49;;;;;;;57.03;38.70;;;1.10;99.90;;;;;;4988720;28;20411;-72
2023/12/08 08:05:15;;;;;;;59.35;39.67;;;1.10;99.90;;;;;;4983709;28;20059;-73
2023/12/08 08:07:44;;;;;;;57.70;40.97;;;1.10;99.90;;;;;;5004932;28;20039;-73
2023/12/08 08:10:10;;;;;;;54.57;38.63;;;1.20;99.90;;;;;;4979548;28;20042;-73
2023/12/08 08:12:36;;;;;;;61.07;39.90;;;1.20;99.90;;;;;;4979103;28;20095;-73
2023/12/08 08:15:02;;;;;;;59.87;40.53;;;1.20;99.90;;;;;;4990863;28;20433;-73
2023/12/08 08:17:27;;;;;;;59.55;41.03;;;1.20;99.90;;;;;;4981378;28;20055;-73
2023/12/08 08:19:53;;;;;;;55.13;39.45;;;1.20;99.90;;;;;;4976634;28;20062;-72
2023/12/08 08:22:19;;;;;;;58.95;39.83;;;1.20;99.90;;;;;;5016806;28;20039;-73
2023/12/08 08:24:45;;;;;;;55.80;39.73;;;1.20;99.90;;;;;;4979117;28;20482;-73
2023/12/08 08:27:11;;;;;;;61.27;40.73;;;1.20;99.90;;;;;;4979924;28;20053;-73
2023/12/08 08:29:36;;;;;;;55.47;39.93;;;1.20;99.90;;;;;;4978761;28;20050;-71
2023/12/08 08:32:03;;;;;;;56.42;39.10;;;1.20;99.90;;;;;;4999370;28;20611;-71
2023/12/08 08:34:29;;;;;;;58.87;40.00;;;1.10;99.90;;;;;;4979783;28;20524;-71
2023/12/08 08:36:55;;;;;;;56.70;39.23;;;1.20;99.90;;;;;;4964979;28;20039;-71
2023/12/08 08:39:21;;;;;;;55.63;37.70;;;1.20;99.90;;;;;;4983330;28;20036;-70
2023/12/08 08:41:48;;;;;;;55.23;37.57;;;1.20;99.90;;;;;;4986844;28;20501;-72
2023/12/08 08:44:14;;;;;;;55.90;38.57;;;1.20;99.90;;;;;;4983822;28;20188;-71
2023/12/08 08:46:41;;;;;;;53.43;37.27;;;1.20;99.90;;;;;;4966870;28;20125;-73
2023/12/08 08:49:08;;;;;;;54.92;37.13;;;1.20;99.90;;;;;;4969138;28;20558;-73
2023/12/08 08:51:38;;;;;;;60.95;40.65;;;1.20;99.90;;;;;;4976091;28;20363;-73
2023/12/08 08:54:04;;;;;;;53.45;36.17;;;1.20;99.90;;;;;;4977327;28;20103;-73
2023/12/08 08:56:29;;;;;;;56.20;37.70;;;1.20;99.90;;;;;;4982354;28;20039;-74
2023/12/08 08:58:56;;;;;;;60.97;39.87;;;1.20;99.90;;;;;;5003248;28;21188;-74
2023/12/08 09:01:23;;;;;;;57.40;38.63;;;1.20;99.90;;;;;;4984713;28;20053;-74
2023/12/08 09:03:49;;;;;;;53.63;37.17;;;1.20;99.90;;;;;;4979996;28;20049;-74
2023/12/08 09:06:15;;;;;;;56.07;39.33;;;1.20;99.90;;;;;;4987103;28;20042;-74
2023/12/08 09:08:41;;;;;;;56.90;38.23;;;1.20;99.90;;;;;;4985537;28;20513;-74
2023/12/08 09:11:06;;;;;;;57.72;39.17;;;1.20;99.90;;;;;;5008532;28;20050;-74
2023/12/08 09:13:32;;;;;;;58.43;38.50;;;1.30;99.90;;;;;;4966538;28;20418;-74
2023/12/08 09:15:58;;;;;;;55.20;38.30;;;1.20;99.90;;;;;;4998166;28;20055;-74
2023/12/08 09:18:24;;;;;;;57.57;37.67;;;1.30;99.90;;;;;;4982583;28;20046;-74
2023/12/08 09:20:50;;;;;;;57.13;39.33;;;1.30;99.90;;;;;;4966900;28;20067;-75
2023/12/08 09:23:16;;;;;;;56.87;38.90;;;1.30;99.90;;;;;;4988006;28;20074;-75
2023/12/08 09:25:42;;;;;;;59.93;40.27;;;1.30;99.90;;;;;;4966099;28;20102;-75
2023/12/08 09:28:07;;;;;;;56.35;38.97;;;1.30;99.90;;;;;;4984245;28;20459;-75
2023/12/08 09:30:36;;;;;;;56.03;39.00;;;1.40;99.90;;;;;;4981676;28;20919;-75
2023/12/08 09:33:02;;;;;;;59.33;39.80;;;1.30;99.90;;;;;;4968382;28;20048;-75
2023/12/08 09:35:28;;;;;;;55.42;39.83;;;1.30;99.90;;;;;;4982607;28;20050;-75
2023/12/08 09:37:54;;;;;;;58.47;39.40;;;1.30;99.90;;;;;;4990322;28;20038;-72
2023/12/08 09:40:23;;;;;;;55.53;39.63;;;1.40;99.90;;;;;;4979154;28;20481;-75
2023/12/08 09:42:57;;;;;;;51.22;36.90;;;1.40;99.90;;;;;;4963719;28;20046;-73
2023/12/08 09:45:22;;;;;;;55.92;39.85;;;1.40;99.90;;;;;;4966937;28;20077;-73
2023/12/08 09:47:52;;;;;;;51.53;39.07;;;1.40;99.90;;;;;;4976379;28;20076;-73
2023/12/08 09:50:19;;;;;;;57.58;39.72;;;1.50;99.90;;;;;;4980071;28;20506;-73
2023/12/08 09:52:45;;;;;;;55.70;39.70;;;1.50;99.90;;;;;;4981593;28;20518;-71
2023/12/08 09:55:12;;;;;;;59.90;40.80;;;1.60;99.90;;;;;;5008184;28;20058;-71
2023/12/08 09:57:41;;;;;;;59.60;40.90;;;1.70;99.90;;;;;;5005683;28;20476;-71
2023/12/08 10:00:11;;;;;;;56.90;40.20;;;1.70;99.90;;;;;;4984923;28;20057;-72
2023/12/08 10:02:37;;;;;;;;;;;1.70;99.90;;;;;;4983103;28;20559;-72
2023/12/08 10:05:03;;;;;;;50.25;37.20;;;1.70;99.90;;;;;;4967128;28;19921;-71
2023/12/08 10:07:33;;;;;;;53.22;39.25;;;1.70;99.90;;;;;;4964888;28;20448;-71
2023/12/08 10:10:00;;;;;;;51.30;38.83;;;1.80;99.90;;;;;;5023354;28;20131;-72
2023/12/08 10:12:26;;;;;;;54.38;39.83;;;1.80;99.90;;;;;;5019694;28;20458;-72
2023/12/08 10:14:54;;;;;;;52.13;39.17;;;1.80;99.90;;;;;;4982214;28;20069;-72
2023/12/08 10:17:20;;;;;;;50.83;38.05;;;1.90;99.90;;;;;;4962571;28;20054;-72
2023/12/08 10:19:46;;;;;;;50.50;37.63;;;1.90;99.90;;;;;;4970399;28;20043;-72
2023/12/08 10:22:12;;;;;;;62.58;40.85;;;1.90;99.90;;;;;;4990494;28;20043;-72
2023/12/08 10:24:40;;;;;;;57.28;40.30;;;1.90;99.90;;;;;;4977321;28;20050;-73
2023/12/08 10:27:11;;;;;;;52.90;38.67;;;1.90;99.90;;;;;;4980421;28;20058;-72
2023/12/08 10:29:37;;;;;;;54.22;39.33;;;1.90;99.90;;;;;;4981030;28;20064;-73
2023/12/08 10:32:04;;;;;;;62.38;43.75;;;2.00;99.90;;;;;;4988770;28;20050;-73
2023/12/08 10:34:31;;;;;;;56.70;40.85;;;1.90;99.90;;;;;;4982011;28;20048;-73
2023/12/08 10:36:57;;;;;;;52.90;40.65;;;1.90;99.90;;;;;;4979679;28;20042;-73
2023/12/08 10:39:27;;;;;;;56.15;41.25;;;2.00;99.90;;;;;;4993341;28;20334;-73
2023/12/08 10:41:53;;;;;;;71.93;43.35;;;2.00;99.90;;;;;;4981870;28;20046;-73
2023/12/08 10:44:21;;;;;;;54.90;39.53;;;2.00;99.90;;;;;;4980029;28;20049;-74
2023/12/08 10:46:48;;;;;;;66.15;43.95;;;2.10;99.90;;;;;;4979175;28;20135;-74
2023/12/08 10:49:21;;;;;;;58.90;41.38;;;2.00;99.90;;;;;;4988971;28;20046;-73
2023/12/08 10:51:48;;;;;;;55.95;40.58;;;2.00;99.90;;;;;;4988795;28;20115;-73
2023/12/08 10:54:18;;;;;;;57.20;42.53;;;2.10;99.90;;;;;;5030358;28;20045;-73
2023/12/08 10:56:48;;;;;;;;;;;2.00;99.90;;;;;;4982872;28;20572;-73
2023/12/08 10:59:21;;;;;;;74.85;47.05;;;2.10;99.90;;;;;;4980154;28;19925;-73
2023/12/08 11:01:48;;;;;;;65.35;41.97;;;2.10;99.90;;;;;;5013526;28;20054;-74
2023/12/08 11:04:21;;;;;;;73.75;44.28;;;2.10;99.90;;;;;;5009672;27;20046;-72
2023/12/08 11:07:10;;;;;;;74.07;43.97;;;2.10;99.90;;;;;;4981490;28;20583;-72
2023/12/08 11:09:40;;;;;;;82.93;47.28;;;2.10;99.90;;;;;;5013405;28;20409;-74
2023/12/08 11:12:13;;;;;;;73.70;45.20;;;2.10;99.90;;;;;;5017785;27;20116;-73
2023/12/08 11:14:45;;;;;;;77.30;46.22;;;2.10;99.90;;;;;;5008925;28;20449;-73
2023/12/08 11:17:26;;;;;;;89.38;48.25;;;2.10;99.90;;;;;;4973087;28;20114;-72
2023/12/08 11:19:53;;;;;;;94.70;48.05;;;2.10;99.90;;;;;;5003591;28;20605;-73
2023/12/08 11:22:20;;;;;;;80.80;47.58;;;2.10;99.90;;;;;;5007467;28;20046;-73
2023/12/08 11:24:46;;;;;;;91.63;50.60;;;2.10;99.90;;;;;;5011108;28;20475;-73
2023/12/08 11:27:39;;;;;;;92.97;51.35;;;2.10;99.90;;;;;;5029723;28;20062;-73
2023/12/08 11:30:27;;;;;;;94.55;50.10;;;2.10;99.90;;;;;;4969420;28;20128;-73
2023/12/08 11:33:31;;;;;;;70.85;44.33;;;2.20;99.90;;;;;;4974426;28;20039;-72
2023/12/08 11:36:10;;;;;;;81.85;46.40;;;2.10;99.90;;;;;;5027358;28;20086;-72
2023/12/08 11:38:37;;;;;;;83.25;46.85;;;2.20;99.90;;;;;;5036920;28;20101;-72
2023/12/08 11:41:11;;;;;;;104.07;51.45;;;2.20;99.90;;;;;;4990231;28;20073;-72
2023/12/08 11:43:37;;;;;;;75.18;46.10;;;2.10;99.90;;;;;;4989780;28;20107;-73
2023/12/08 11:46:04;;;;;;;81.00;48.00;;;2.10;99.90;;;;;;4979156;28;20058;-73
2023/12/08 11:48:30;;;;;;;83.75;46.97;;;2.10;99.90;;;;;;4964660;28;20061;-73
2023/12/08 11:51:01;;;;;;;150.82;55.90;;;2.10;99.90;;;;;;4988008;28;20482;-73
2023/12/08 11:53:26;;;;;;;;;;;2.20;99.90;;;;;;4974068;28;20036;-73
2023/12/08 11:55:54;;;;;;;82.40;48.58;;;2.10;99.90;;;;;;4990441;28;20004;-73
2023/12/08 11:58:31;;;;;;;91.13;48.00;;;2.10;99.90;;;;;;4963735;28;20046;-73
2023/12/08 12:01:02;;;;;;;101.13;51.15;;;2.10;99.90;;;;;;4969180;28;20490;-72
2023/12/08 12:03:27;;;;;;;;;;;2.10;99.90;;;;;;4968366;28;20125;-72
2023/12/08 12:05:53;;;;;;;92.97;49.40;;;2.20;99.90;;;;;;4992522;28;20449;-73
2023/12/08 12:08:25;;;;;;;86.03;47.88;;;2.20;99.90;;;;;;4981141;28;20046;-72
2023/12/08 12:10:56;;;;;;;90.03;48.13;;;2.10;99.90;;;;;;4962303;28;20678;-73
2023/12/08 12:13:25;;;;;;;105.15;51.47;;;2.10;99.90;;;;;;4980120;28;20053;-74
2023/12/08 12:15:55;;;;;;;81.95;47.22;;;2.20;99.90;;;;;;5001849;28;20335;-74
2023/12/08 12:18:23;;;;;;;84.03;50.20;;;2.10;99.90;;;;;;4989761;28;20636;-75
2023/12/08 12:20:49;;;;;;;78.53;47.20;;;2.10;99.90;;;;;;4994109;28;20050;-75
2023/12/08 12:23:16;;;;;;;78.47;48.00;;;2.20;99.90;;;;;;4986039;28;20050;-74
2023/12/08 12:25:42;;;;;;;100.53;50.00;;;2.20;99.90;;;;;;4985261;28;20050;-73
2023/12/08 12:28:08;;;;;;;102.60;52.08;;;2.10;99.90;;;;;;4998892;28;20068;-74
2023/12/08 12:30:34;;;;;;;94.60;50.35;;;2.20;99.90;;;;;;5028037;28;20052;-74
2023/12/08 12:33:02;;;;;;;89.10;49.17;;;2.20;99.90;;;;;;4998191;28;20422;-74
2023/12/08 12:35:28;;;;;;;82.65;47.53;;;2.20;99.90;;;;;;5012805;28;20501;-75
2023/12/08 12:37:54;;;;;;;99.88;51.80;;;2.20;99.90;;;;;;4974466;28;20062;-71